Time;durP1;ratioP1;P1;durP2;ratioP2;P2;SDS_P1;SDS_P2;PMS_P1;PMS_P2;Temp;Humidity;BMP_temperature;BMP_pressure;BME280_temperature;BME280_humidity;BME280_pressure;Samples;Min_cycle;Max_cycle;Signal;HPM_P1;HPM_P2
2024/01/11 00:01:49;;;;;;;30.42;16.08;;;;;;;;;;5054598;28;20036;-81
2024/01/11 00:04:15;;;;;;;31.27;15.50;;;;;;;;;;5049978;28;20028;-82
2024/01/11 00:06:42;;;;;;;25.58;14.27;;;;;;;;;;5049799;28;20392;-81
2024/01/11 00:09:08;;;;;;;27.85;16.73;;;;;;;;;;5049482;28;20031;-80
2024/01/11 00:11:34;;;;;;;30.30;16.15;;;;;;;;;;5031989;28;20112;-81
2024/01/11 00:14:00;;;;;;;29.55;16.92;;;;;;;;;;5049745;28;20358;-82
2024/01/11 00:16:26;;;;;;;29.30;16.95;;;;;;;;;;5050264;28;20079;-80
2024/01/11 00:18:52;;;;;;;32.10;18.42;;;;;;;;;;5050078;28;20477;-83
2024/01/11 00:21:18;;;;;;;34.80;21.60;;;;;;;;;;5050467;28;20075;-83
2024/01/11 00:23:44;;;;;;;38.05;20.83;;;;;;;;;;5049449;28;20112;-83
2024/01/11 00:26:13;;;;;;;31.33;17.52;;;;;;;;;;5045395;28;20081;-80
2024/01/11 00:28:39;;;;;;;41.90;22.80;;;;;;;;;;5032585;28;20033;-79
2024/01/11 00:31:05;;;;;;;49.58;24.20;;;;;;;;;;5049511;28;20107;-81
2024/01/11 00:33:31;;;;;;;34.20;18.40;;;;;;;;;;5044654;28;20025;-79
2024/01/11 00:35:57;;;;;;;46.13;23.23;;;;;;;;;;5050229;28;20100;-81
2024/01/11 00:38:23;;;;;;;43.83;22.45;;;;;;;;;;5032090;28;20025;-80
2024/01/11 00:40:49;;;;;;;36.60;19.58;;;;;;;;;;5048951;28;20451;-81
2024/01/11 00:43:15;;;;;;;38.55;18.55;;;;;;;;;;5049249;28;20021;-81
2024/01/11 00:45:41;;;;;;;28.60;17.13;;;;;;;;;;5049164;28;20025;-82
2024/01/11 00:48:07;;;;;;;32.05;18.55;;;;;;;;;;5048424;28;20151;-81
2024/01/11 00:50:33;;;;;;;38.72;18.00;;;;;;;;;;5047819;28;20100;-81
2024/01/11 00:53:01;;;;;;;33.30;18.58;;;;;;;;;;5049138;28;20029;-81
2024/01/11 00:55:27;;;;;;;29.95;16.27;;;;;;;;;;5049988;28;20029;-81
2024/01/11 00:57:53;;;;;;;33.35;17.20;;;;;;;;;;5024170;28;20383;-80
2024/01/11 01:00:19;;;;;;;27.15;15.68;;;;;;;;;;5043823;28;20100;-80
2024/01/11 01:02:45;;;;;;;29.40;16.08;;;;;;;;;;5035573;28;20363;-81
2024/01/11 01:05:11;;;;;;;35.20;16.55;;;;;;;;;;5028869;28;20091;-81
2024/01/11 01:07:37;;;;;;;31.20;16.23;;;;;;;;;;5029072;28;20397;-84
2024/01/11 01:10:03;;;;;;;27.67;15.43;;;;;;;;;;5040173;28;20029;-81
2024/01/11 01:12:29;;;;;;;29.10;15.20;;;;;;;;;;5049261;28;20025;-81
2024/01/11 01:14:55;;;;;;;28.02;16.15;;;;;;;;;;5049662;28;20396;-81
2024/01/11 01:17:22;;;;;;;29.20;15.82;;;;;;;;;;5020322;28;20025;-82
2024/01/11 01:19:48;;;;;;;28.80;16.02;;;;;;;;;;5037862;28;20037;-81
2024/01/11 01:22:14;;;;;;;29.75;15.38;;;;;;;;;;5030785;28;20082;-81
2024/01/11 01:24:40;;;;;;;30.85;15.05;;;;;;;;;;5030726;28;20028;-81
2024/01/11 01:27:06;;;;;;;30.85;16.30;;;-0.40;99.90;;;;;;5030898;28;20474;-81
2024/01/11 01:29:31;;;;;;;27.98;15.13;;;-1.80;99.90;;;;;;5047629;28;20029;-81
2024/01/11 01:31:57;;;;;;;28.65;15.73;;;-1.60;99.90;;;;;;5049527;28;20385;-82
2024/01/11 01:34:22;;;;;;;30.95;16.08;;;-1.30;99.90;;;;;;5048730;28;20028;-82
2024/01/11 01:36:48;;;;;;;28.98;14.70;;;-0.60;99.90;;;;;;5047841;28;20111;-82
2024/01/11 01:39:13;;;;;;;30.10;16.17;;;-2.20;99.90;;;;;;5032518;28;20025;-82
2024/01/11 01:41:39;;;;;;;31.55;16.70;;;-2.40;99.90;;;;;;5033520;28;20049;-83
2024/01/11 01:44:05;;;;;;;31.33;17.05;;;-0.50;99.90;;;;;;5010683;28;20104;-81
2024/01/11 01:46:31;;;;;;;28.73;15.73;;;-1.70;99.90;;;;;;5029076;28;20028;-80
2024/01/11 01:48:58;;;;;;;29.00;15.32;;;-2.00;99.90;;;;;;5030041;28;20362;-80
2024/01/11 01:51:28;;;;;;;29.50;16.60;;;-2.60;99.90;;;;;;5048517;28;20083;-81
2024/01/11 01:53:56;;;;;;;30.30;17.45;;;-3.20;99.90;;;;;;5031109;28;20121;-81
2024/01/11 01:56:22;;;;;;;27.67;15.27;;;-2.10;99.90;;;;;;5014829;28;20029;-83
2024/01/11 01:58:51;;;;;;;27.38;16.52;;;-1.20;99.90;;;;;;5043509;28;20439;-81
2024/01/11 02:01:18;;;;;;;30.90;15.40;;;-2.90;99.90;;;;;;5051787;28;20554;-81
2024/01/11 02:03:46;;;;;;;31.23;17.20;;;-2.50;99.90;;;;;;5052346;28;20464;-83
2024/01/11 02:06:14;;;;;;;26.13;16.13;;;-3.00;99.90;;;;;;5052333;28;20526;-82
2024/01/11 02:08:42;;;;;;;28.83;17.15;;;-1.10;99.90;;;;;;5052114;28;20346;-81
2024/01/11 02:11:07;;;;;;;30.52;16.38;;;-1.80;99.90;;;;;;5033554;28;20036;-82
2024/01/11 02:13:34;;;;;;;27.13;15.02;;;-2.60;99.90;;;;;;5035468;28;20029;-82
2024/01/11 02:15:59;;;;;;;26.50;15.30;;;-2.40;99.90;;;;;;5015299;28;20056;-82
2024/01/11 02:18:25;;;;;;;26.73;14.48;;;-2.20;99.90;;;;;;5043288;28;20057;-82
2024/01/11 02:20:51;;;;;;;31.92;15.85;;;-2.70;99.90;;;;;;5047273;28;20042;-81
2024/01/11 02:23:21;;;;;;;27.63;15.48;;;-2.90;99.90;;;;;;5013950;28;20036;-81
2024/01/11 02:25:47;;;;;;;27.50;16.05;;;-0.40;99.90;;;;;;5045351;28;20055;-83
2024/01/11 02:28:12;;;;;;;32.65;15.23;;;-2.80;99.90;;;;;;5045050;28;20017;-80
2024/01/11 02:30:38;;;;;;;32.38;15.95;;;-2.90;99.90;;;;;;5031569;28;20025;-82
2024/01/11 02:33:04;;;;;;;34.50;15.77;;;-2.50;99.90;;;;;;5031836;28;20382;-81
2024/01/11 02:35:31;;;;;;;26.13;14.68;;;-2.60;99.90;;;;;;5043795;28;20029;-81
2024/01/11 02:37:58;;;;;;;28.50;16.10;;;-2.50;99.90;;;;;;5051634;28;20017;-82
2024/01/11 02:40:24;;;;;;;30.42;14.43;;;;;;;;;;5051510;28;20083;-82
2024/01/11 02:42:50;;;;;;;32.88;16.80;;;;;;;;;;5021941;28;20381;-81
2024/01/11 02:45:16;;;;;;;27.80;15.25;;;;;;;;;;5033250;28;20030;-82
2024/01/11 02:47:42;;;;;;;34.03;15.98;;;;;;;;;;5031425;28;20022;-81
2024/01/11 02:50:08;;;;;;;27.80;13.98;;;;;;;;;;5031249;28;20386;-82
2024/01/11 02:52:34;;;;;;;26.95;13.32;;;;;;;;;;5032003;28;20022;-80
2024/01/11 02:55:00;;;;;;;26.63;14.52;;;;;;;;;;5039411;28;20031;-81
2024/01/11 02:57:26;;;;;;;33.05;14.95;;;;;;;;;;5051287;28;20109;-79
2024/01/11 02:59:52;;;;;;;25.38;13.48;;;;;;;;;;5033325;28;20451;-80
2024/01/11 03:02:18;;;;;;;27.85;15.02;;;;;;;;;;5044913;28;20029;-81
2024/01/11 03:04:44;;;;;;;27.65;14.82;;;;;;;;;;5035652;28;20519;-79
2024/01/11 03:07:10;;;;;;;31.40;15.00;;;;;;;;;;5050770;28;20021;-80
2024/01/11 03:09:36;;;;;;;23.75;12.85;;;;;;;;;;5051072;28;20021;-80
2024/01/11 03:12:03;;;;;;;27.80;14.60;;;;;;;;;;5032983;28;20025;-80
2024/01/11 03:14:28;;;;;;;27.73;14.45;;;;;;;;;;5050591;28;20053;-80
2024/01/11 03:16:54;;;;;;;26.33;13.68;;;;;;;;;;5050883;28;20409;-80
2024/01/11 03:19:21;;;;;;;25.42;13.35;;;;;;;;;;5050822;28;20104;-82
2024/01/11 03:21:47;;;;;;;24.88;13.77;;;;;;;;;;5035094;28;20421;-81
2024/01/11 03:24:13;;;;;;;25.20;13.48;;;;;;;;;;5031759;28;20138;-81
2024/01/11 03:26:39;;;;;;;25.98;13.60;;;;;;;;;;5049603;28;20029;-81
2024/01/11 03:29:06;;;;;;;28.60;13.85;;;;;;;;;;5032003;28;20145;-80
2024/01/11 03:31:32;;;;;;;25.20;14.32;;;;;;;;;;5031653;28;20100;-81
2024/01/11 03:33:58;;;;;;;25.98;13.45;;;;;;;;;;5030759;28;20021;-82
2024/01/11 03:36:24;;;;;;;24.52;14.35;;;;;;;;;;5048536;28;20021;-82
2024/01/11 03:38:51;;;;;;;23.40;12.82;;;;;;;;;;5050472;28;20373;-81
2024/01/11 03:41:17;;;;;;;22.60;13.23;;;;;;;;;;5050402;28;20060;-84
2024/01/11 03:43:43;;;;;;;26.75;14.02;;;;;;;;;;5050372;28;20460;-81
2024/01/11 03:46:08;;;;;;;28.70;15.63;;;;;;;;;;5049462;28;20032;-81
2024/01/11 03:48:38;;;;;;;21.60;12.50;;;;;;;;;;5050840;28;20057;-82
2024/01/11 03:51:04;;;;;;;25.02;13.32;;;;;;;;;;5043133;28;20097;-84
2024/01/11 03:53:30;;;;;;;25.23;13.73;;;;;;;;;;5031201;28;20094;-81
2024/01/11 03:55:56;;;;;;;23.85;12.38;;;;;;;;;;5041022;28;20021;-83
2024/01/11 03:58:22;;;;;;;27.90;13.52;;;;;;;;;;5049792;28;20033;-83
2024/01/11 04:00:48;;;;;;;23.38;13.57;;;;;;;;;;5046772;28;20072;-80
2024/01/11 04:03:14;;;;;;;23.92;13.02;;;;;;;;;;5049729;28;20049;-82
2024/01/11 04:05:40;;;;;;;25.50;13.02;;;;;;;;;;5031082;28;20060;-81
2024/01/11 04:08:07;;;;;;;24.65;13.07;;;;;;;;;;5049408;28;20040;-80
2024/01/11 04:10:33;;;;;;;21.92;12.07;;;;;;;;;;5048621;28;20094;-81
2024/01/11 04:12:59;;;;;;;26.65;12.73;;;;;;;;;;5048559;28;20047;-81
2024/01/11 04:15:26;;;;;;;19.73;11.60;;;;;;;;;;5049410;28;20029;-81
2024/01/11 04:17:52;;;;;;;25.98;13.48;;;;;;;;;;5049562;28;20107;-82
2024/01/11 04:20:18;;;;;;;23.98;11.48;;;;;;;;;;5030829;28;20108;-79
2024/01/11 04:22:44;;;;;;;22.83;11.77;;;;;;;;;;5049384;28;20036;-80
2024/01/11 04:25:11;;;;;;;24.42;12.10;;;;;;;;;;5049521;28;20490;-81
2024/01/11 04:27:37;;;;;;;28.85;15.00;;;;;;;;;;5049849;28;20119;-80
2024/01/11 04:30:03;;;;;;;19.67;12.20;;;;;;;;;;5049500;28;20056;-80
2024/01/11 04:32:29;;;;;;;29.80;13.48;;;;;;;;;;5048479;28;20705;-84
2024/01/11 04:34:55;;;;;;;22.15;13.00;;;;;;;;;;5051627;28;20090;-81
2024/01/11 04:37:21;;;;;;;24.40;12.48;;;;;;;;;;5049662;28;20100;-80
2024/01/11 04:39:47;;;;;;;24.33;13.93;;;;;;;;;;5031130;28;20397;-82
2024/01/11 04:42:13;;;;;;;25.40;13.10;;;;;;;;;;5049021;28;20485;-80
2024/01/11 04:44:39;;;;;;;26.42;14.07;;;;;;;;;;5049796;28;20037;-82
2024/01/11 04:47:05;;;;;;;22.90;12.90;;;;;;;;;;5049599;28;20025;-80
2024/01/11 04:49:31;;;;;;;21.65;12.57;;;;;;;;;;5031235;28;20045;-81
2024/01/11 04:51:57;;;;;;;19.95;12.10;;;;;;;;;;5031039;28;20063;-81
2024/01/11 04:54:25;;;;;;;26.90;13.38;;;;;;;;;;5042329;28;20482;-81
2024/01/11 04:56:51;;;;;;;27.70;13.52;;;;;;;;;;5029960;28;20060;-85
2024/01/11 04:59:17;;;;;;;25.73;13.10;;;;;;;;;;5048392;28;20493;-82
2024/01/11 05:01:43;;;;;;;22.35;12.50;;;;;;;;;;5048911;28;20041;-82
2024/01/11 05:04:09;;;;;;;25.20;12.25;;;;;;;;;;5049244;28;20017;-81
2024/01/11 05:06:35;;;;;;;25.70;13.30;;;;;;;;;;5048937;28;20033;-82
2024/01/11 05:09:02;;;;;;;22.73;12.32;;;;;;;;;;5052256;28;20017;-83
2024/01/11 05:11:27;;;;;;;24.90;13.38;;;;;;;;;;5044592;28;20063;-82
2024/01/11 05:13:54;;;;;;;28.25;13.55;;;;;;;;;;5060862;28;20442;-81
2024/01/11 05:16:20;;;;;;;19.95;12.27;;;;;;;;;;5066687;28;20138;-83
2024/01/11 05:18:46;;;;;;;23.30;12.65;;;;;;;;;;5066019;28;20541;-82
2024/01/11 05:21:12;;;;;;;21.50;12.57;;;;;;;;;;5066641;28;20040;-82
2024/01/11 05:23:38;;;;;;;25.05;13.43;;;;;;;;;;5044897;28;20112;-82
2024/01/11 05:26:05;;;;;;;25.83;13.93;;;;;;;;;;5066086;28;20120;-81
2024/01/11 05:28:31;;;;;;;26.23;13.00;;;;;;;;;;5067724;28;20241;-88
2024/01/11 05:30:57;;;;;;;26.75;14.60;;;;;;;;;;5057682;28;20025;-84
2024/01/11 05:33:23;;;;;;;28.52;16.15;;;;;;;;;;5071919;28;20029;-82
2024/01/11 05:35:49;;;;;;;22.98;13.27;;;;;;;;;;5066643;28;20031;-85
2024/01/11 05:38:15;;;;;;;24.60;14.50;;;;;;;;;;5034876;28;20025;-83
2024/01/11 05:40:41;;;;;;;27.75;14.90;;;;;;;;;;5035575;28;20044;-82
2024/01/11 05:43:07;;;;;;;25.77;14.15;;;;;;;;;;5034867;28;20025;-83
2024/01/11 05:45:33;;;;;;;20.08;11.85;;;;;;;;;;5042969;28;20401;-83
2024/01/11 05:48:00;;;;;;;24.98;14.02;;;;;;;;;;5048533;28;20027;-82
2024/01/11 05:50:26;;;;;;;24.48;13.45;;;;;;;;;;5038586;28;20510;-84
2024/01/11 05:52:53;;;;;;;26.00;12.20;;;;;;;;;;5049980;28;20025;-83
2024/01/11 05:55:20;;;;;;;23.53;14.00;;;;;;;;;;5038066;28;20111;-82
2024/01/11 05:57:46;;;;;;;25.40;13.43;;;;;;;;;;5056045;28;20021;-83
2024/01/11 06:00:12;;;;;;;28.63;13.30;;;;;;;;;;5053349;28;20027;-81
2024/01/11 06:02:38;;;;;;;27.10;14.98;;;;;;;;;;5040308;28;20120;-86
2024/01/11 06:05:04;;;;;;;30.70;16.00;;;;;;;;;;5052067;28;20045;-84
2024/01/11 06:07:30;;;;;;;20.98;12.48;;;;;;;;;;5052201;28;20036;-83
2024/01/11 06:09:56;;;;;;;30.58;15.48;;;;;;;;;;5052087;28;20104;-82
2024/01/11 06:12:22;;;;;;;27.23;14.23;;;;;;;;;;5052089;28;20435;-82
2024/01/11 06:14:48;;;;;;;29.35;14.27;;;;;;;;;;5051900;28;20104;-85
2024/01/11 06:17:14;;;;;;;30.23;13.02;;;;;;;;;;5052063;28;20079;-82
2024/01/11 06:19:40;;;;;;;29.33;15.20;;;;;;;;;;5052678;28;20385;-84
2024/01/11 06:22:06;;;;;;;24.05;13.55;;;;;;;;;;5051919;28;20078;-87
2024/01/11 06:24:32;;;;;;;27.27;15.93;;;;;;;;;;5052214;28;20028;-88
2024/01/11 06:26:58;;;;;;;20.13;12.15;;;;;;;;;;5052065;28;20108;-84
2024/01/11 06:29:24;;;;;;;21.25;12.82;;;;;;;;;;5033828;28;20024;-83
2024/01/11 06:31:50;;;;;;;25.27;12.10;;;;;;;;;;5051886;28;20082;-84
2024/01/11 06:34:16;;;;;;;20.55;11.48;;;;;;;;;;5033796;28;20504;-82
2024/01/11 06:36:42;;;;;;;23.73;13.35;;;;;;;;;;5034759;28;20059;-83
2024/01/11 06:39:08;;;;;;;26.02;13.48;;;;;;;;;;5033250;28;20064;-83
2024/01/11 06:41:34;;;;;;;22.98;13.05;;;;;;;;;;5051620;28;20039;-82
2024/01/11 06:44:00;;;;;;;26.10;14.50;;;;;;;;;;5051398;28;20107;-83
2024/01/11 06:46:26;;;;;;;24.58;12.85;;;;;;;;;;5051562;28;20083;-83
2024/01/11 06:48:52;;;;;;;28.02;15.30;;;;;;;;;;5051432;28;20017;-83
2024/01/11 06:51:21;;;;;;;26.23;15.05;;;;;;;;;;5051438;28;20083;-82
2024/01/11 06:53:48;;;;;;;24.98;14.57;;;;;;;;;;5051381;28;20079;-86
2024/01/11 06:56:17;;;;;;;21.77;13.40;;;;;;;;;;5052240;28;20025;-83
2024/01/11 06:58:44;;;;;;;27.33;15.70;;;;;;;;;;5052116;28;20056;-82
2024/01/11 07:01:10;;;;;;;24.25;14.10;;;;;;;;;;5051190;28;20091;-82
2024/01/11 07:03:36;;;;;;;29.75;14.55;;;;;;;;;;5051170;28;20230;-82
2024/01/11 07:06:03;;;;;;;32.33;15.85;;;;;;;;;;5051090;28;20020;-83
2024/01/11 07:08:29;;;;;;;22.48;12.23;;;;;;;;;;5033169;28;20032;-83
2024/01/11 07:10:55;;;;;;;23.45;13.52;;;;;;;;;;5050952;28;20021;-84
2024/01/11 07:13:21;;;;;;;21.40;12.07;;;;;;;;;;5051067;28;20033;-84
2024/01/11 07:15:48;;;;;;;29.13;16.40;;;;;;;;;;5051228;28;20017;-83
2024/01/11 07:18:14;;;;;;;23.45;13.18;;;;;;;;;;5051848;28;20018;-84
2024/01/11 07:20:40;;;;;;;21.60;12.57;;;;;;;;;;5050825;28;20041;-83
2024/01/11 07:23:06;;;;;;;28.95;12.45;;;;;;;;;;5050671;28;20056;-83
2024/01/11 07:25:34;;;;;;;25.33;13.10;;;;;;;;;;5050756;28;20052;-84
2024/01/11 07:28:00;;;;;;;26.83;13.70;;;;;;;;;;5050670;28;20074;-85
2024/01/11 07:30:26;;;;;;;22.33;12.45;;;;;;;;;;5050739;28;20104;-87
2024/01/11 07:32:52;;;;;;;28.42;13.25;;;;;;;;;;5050774;28;20463;-84
2024/01/11 07:35:18;;;;;;;27.85;14.57;;;;;;;;;;5051072;28;20036;-82
2024/01/11 07:37:44;;;;;;;23.92;12.45;;;;;;;;;;5051489;28;20477;-84
2024/01/11 07:40:10;;;;;;;24.20;12.60;;;;;;;;;;5050406;28;20025;-84
2024/01/11 07:42:38;;;;;;;27.08;12.73;;;;;;;;;;5050443;28;20033;-85
2024/01/11 07:45:05;;;;;;;24.70;13.38;;;;;;;;;;5050413;28;20017;-85
2024/01/11 07:47:31;;;;;;;24.50;13.38;;;;;;;;;;5050399;28;20086;-85
2024/01/11 07:49:57;;;;;;;24.52;12.70;;;;;;;;;;5050025;28;20087;-86
2024/01/11 07:52:23;;;;;;;26.15;13.60;;;;;;;;;;5049590;28;20104;-87
2024/01/11 07:54:49;;;;;;;29.40;15.95;;;;;;;;;;5050228;28;20388;-82
2024/01/11 07:57:15;;;;;;;26.75;15.00;;;;;;;;;;5051137;28;20079;-82
2024/01/11 07:59:41;;;;;;;24.17;12.82;;;;;;;;;;5050284;28;20044;-86
2024/01/11 08:02:07;;;;;;;24.58;12.40;;;;;;;;;;5032649;28;20472;-83
2024/01/11 08:04:33;;;;;;;23.95;13.13;;;;;;;;;;5050058;28;20056;-85
2024/01/11 08:06:59;;;;;;;24.30;12.50;;;;;;;;;;5050117;28;20032;-84
2024/01/11 08:09:26;;;;;;;23.10;13.60;;;;;;;;;;5050063;28;20021;-85
2024/01/11 08:11:55;;;;;;;22.92;13.13;;;;;;;;;;5032153;28;20029;-88
2024/01/11 08:14:24;;;;;;;28.55;14.82;;;;;;;;;;5031904;28;20025;-85
2024/01/11 08:16:50;;;;;;;29.17;14.00;;;;;;;;;;5050337;28;20394;-84
2024/01/11 08:19:16;;;;;;;27.58;16.35;;;;;;;;;;5032790;28;20021;-85
2024/01/11 08:21:42;;;;;;;23.48;13.65;;;;;;;;;;5049542;28;20041;-86
2024/01/11 08:24:08;;;;;;;28.10;15.05;;;;;;;;;;5049474;28;20025;-84
2024/01/11 08:26:34;;;;;;;23.92;13.65;;;;;;;;;;5049664;28;20108;-87
2024/01/11 08:29:00;;;;;;;23.75;14.43;;;;;;;;;;5031770;28;20136;-85
2024/01/11 08:31:26;;;;;;;32.03;14.15;;;;;;;;;;5049619;28;20036;-84
2024/01/11 08:33:53;;;;;;;29.42;16.48;;;;;;;;;;5049455;28;20013;-85
2024/01/11 08:36:20;;;;;;;31.27;13.35;;;;;;;;;;5050242;28;20107;-84
2024/01/11 08:38:46;;;;;;;24.00;14.10;;;;;;;;;;5049920;28;20100;-84
2024/01/11 08:41:12;;;;;;;26.38;13.95;;;;;;;;;;5049354;28;20145;-88
2024/01/11 08:43:39;;;;;;;23.08;13.70;;;;;;;;;;5049295;28;20389;-87
2024/01/11 08:46:05;;;;;;;28.00;14.10;;;;;;;;;;5049355;28;20481;-83
2024/01/11 08:48:31;;;;;;;29.05;17.92;;;;;;;;;;5049283;28;20096;-83
2024/01/11 08:50:57;;;;;;;26.13;14.55;;;;;;;;;;5031259;28;20366;-86
2024/01/11 08:53:23;;;;;;;27.80;15.05;;;;;;;;;;5049130;28;20025;-81
2024/01/11 08:55:49;;;;;;;25.00;14.20;;;;;;;;;;5050077;28;20029;-82
2024/01/11 08:58:15;;;;;;;25.15;13.13;;;;;;;;;;5049263;28;20025;-84
2024/01/11 09:00:41;;;;;;;26.33;13.73;;;;;;;;;;5049066;28;20443;-85
2024/01/11 09:03:07;;;;;;;32.10;13.02;;;;;;;;;;5048788;28;20031;-82
2024/01/11 09:05:33;;;;;;;27.52;14.95;;;;;;;;;;5049072;28;20406;-84
2024/01/11 09:07:59;;;;;;;23.60;13.77;;;;;;;;;;5049099;28;20092;-83
2024/01/11 09:10:25;;;;;;;26.48;13.98;;;;;;;;;;5048923;28;20082;-83
2024/01/11 09:12:51;;;;;;;26.13;13.80;;;;;;;;;;5049825;28;20090;-84
2024/01/11 09:15:17;;;;;;;27.42;14.30;;;;;;;;;;5048919;28;20472;-83
2024/01/11 09:17:43;;;;;;;26.45;13.38;;;;;;;;;;5049334;28;20392;-84
2024/01/11 09:20:13;;;;;;;23.95;13.50;;;;;;;;;;5048726;28;20029;-84
2024/01/11 09:22:39;;;;;;;23.90;13.60;;;;;;;;;;5048765;28;20037;-82
2024/01/11 09:25:07;;;;;;;25.08;14.30;;;;;;;;;;5048771;28;20022;-83
2024/01/11 09:27:33;;;;;;;23.88;14.05;;;;;;;;;;5048791;28;20477;-82
2024/01/11 09:29:59;;;;;;;26.80;13.50;;;;;;;;;;5048835;28;20032;-84
2024/01/11 09:32:25;;;;;;;30.42;13.88;;;;;;;;;;5030974;28;20021;-85
2024/01/11 09:34:51;;;;;;;25.75;13.68;;;;;;;;;;5049508;28;20021;-86
2024/01/11 09:37:17;;;;;;;28.63;14.32;;;;;;;;;;5048670;28;20028;-83
2024/01/11 09:39:43;;;;;;;22.85;14.52;;;;;;;;;;5048646;28;20017;-82
2024/01/11 09:42:10;;;;;;;19.90;12.38;;;;;;;;;;5048746;28;20029;-84
2024/01/11 09:44:39;;;;;;;25.70;14.88;;;;;;;;;;5030929;28;20112;-87
2024/01/11 09:47:06;;;;;;;22.77;12.70;;;;;;;;;;5048776;28;20033;-85
2024/01/11 09:49:34;;;;;;;24.73;14.27;;;;;;;;;;5048668;28;20021;-83
2024/01/11 09:52:01;;;;;;;24.10;14.43;;;;;;;;;;5048699;28;20078;-85
2024/01/11 09:54:27;;;;;;;25.73;13.38;;;;;;;;;;5048764;28;20017;-82
2024/01/11 09:56:55;;;;;;;29.23;14.93;;;;;;;;;;5049450;28;20021;-83
2024/01/11 09:59:24;;;;;;;24.13;14.27;;;;;;;;;;5049361;28;20036;-85
2024/01/11 10:01:51;;;;;;;21.83;13.93;;;;;;;;;;5048855;28;20043;-84
2024/01/11 10:04:17;;;;;;;29.35;14.93;;;;;;;;;;5048297;28;20025;-88
2024/01/11 10:06:43;;;;;;;23.45;13.70;;;;;;;;;;5030652;28;20492;-85
2024/01/11 10:09:09;;;;;;;28.58;14.45;;;;;;;;;;5048489;28;20017;-83
2024/01/11 10:11:36;;;;;;;27.58;15.10;;;;;;;;;;5030770;28;20439;-83
2024/01/11 10:14:03;;;;;;;24.92;14.48;;;;;;;;;;5049165;28;20059;-85
2024/01/11 10:16:29;;;;;;;26.85;14.45;;;;;;;;;;5052054;28;20024;-86
2024/01/11 10:18:55;;;;;;;25.50;14.80;;;;;;;;;;5052887;28;20025;-86
2024/01/11 10:21:22;;;;;;;27.73;14.23;;;;;;;;;;5052317;28;20037;-83
2024/01/11 10:23:48;;;;;;;27.60;16.33;;;;;;;;;;5051839;28;20068;-85
2024/01/11 10:26:17;;;;;;;27.92;14.27;;;;;;;;;;5051904;28;20393;-83
2024/01/11 10:28:46;;;;;;;27.70;13.60;;;;;;;;;;5051825;28;20074;-82
2024/01/11 10:31:15;;;;;;;30.40;16.40;;;;;;;;;;5051803;28;20029;-82
2024/01/11 10:33:41;;;;;;;27.48;16.30;;;;;;;;;;5051995;28;20025;-86
2024/01/11 10:36:09;;;;;;;30.05;15.07;;;;;;;;;;5033862;28;20401;-83
2024/01/11 10:38:39;;;;;;;30.65;14.85;;;;;;;;;;5051677;28;20083;-86
2024/01/11 10:41:06;;;;;;;24.67;14.77;;;;;;;;;;5051550;28;20041;-86
2024/01/11 10:43:34;;;;;;;28.05;15.73;;;;;;;;;;5051575;28;20389;-84
2024/01/11 10:46:04;;;;;;;29.03;16.20;;;;;;;;;;5051601;28;20029;-86
2024/01/11 10:48:31;;;;;;;29.95;15.32;;;;;;;;;;5051671;28;20287;-83
2024/01/11 10:51:00;;;;;;;28.57;16.07;;;;;;;;;;5052325;28;20024;-87
2024/01/11 10:53:45;;;;;;;29.48;16.17;;;;;;;;;;5052311;28;20017;-87
2024/01/11 10:56:12;;;;;;;28.55;14.75;;;;;;;;;;5051366;28;20476;-87
2024/01/11 10:58:40;;;;;;;25.33;13.82;;;;;;;;;;5051358;28;20018;-84
2024/01/11 11:01:06;;;;;;;26.90;14.73;;;;;;;;;;5051343;28;20099;-87
2024/01/11 11:03:33;;;;;;;30.58;15.88;;;;;;;;;;5051268;28;20032;-83
2024/01/11 11:06:00;;;;;;;25.75;14.07;;;;;;;;;;5033433;28;20025;-83
2024/01/11 11:08:27;;;;;;;27.45;16.30;;;;;;;;;;5051906;28;20021;-86
2024/01/11 11:10:57;;;;;;;25.67;14.27;;;;;;;;;;5051307;28;20028;-89
2024/01/11 11:13:23;;;;;;;26.42;14.73;;;;;;;;;;5051165;28;20036;-88
2024/01/11 11:15:50;;;;;;;24.27;13.90;;;;;;;;;;5051007;28;20561;-85
2024/01/11 11:18:16;;;;;;;26.50;14.55;;;;;;;;;;5033140;28;20021;-88
2024/01/11 11:20:42;;;;;;;24.13;14.77;;;;;;;;;;5032885;28;20029;-83
2024/01/11 11:23:10;;;;;;;24.85;14.10;;;;;;;;;;5050719;28;20123;-83
2024/01/11 11:25:36;;;;;;;25.10;14.45;;;;;;;;;;5050893;28;20028;-88
2024/01/11 11:28:04;;;;;;;27.27;14.18;;;;;;;;;;5051033;28;20029;-88
2024/01/11 11:30:43;;;;;;;27.00;13.98;;;;;;;;;;5051701;28;20054;-87
2024/01/11 11:33:19;;;;;;;25.30;15.10;;;;;;;;;;5051053;28;20497;-87
2024/01/11 11:35:49;;;;;;;27.50;14.40;;;;;;;;;;5050704;28;20025;-89
2024/01/11 11:38:19;;;;;;;26.83;14.73;;;;;;;;;;5050679;28;20108;-88
2024/01/11 11:40:46;;;;;;;24.58;14.80;;;;;;;;;;5050582;28;20111;-89
2024/01/11 11:43:13;;;;;;;28.17;14.93;;;;;;;;;;5050641;28;20036;-89
2024/01/11 11:45:41;;;;;;;23.02;13.68;;;;;;;;;;5032969;28;20047;-89
2024/01/11 11:48:25;;;;;;;27.10;14.80;;;;;;;;;;5050465;28;20021;-87
2024/01/11 11:51:01;;;;;;;25.45;13.85;;;;;;;;;;5032568;28;20885;-88
2024/01/11 11:53:30;;;;;;;22.55;13.55;;;;;;;;;;5051384;28;20021;-87
2024/01/11 11:55:56;;;;;;;21.98;12.50;;;;;;;;;;5050476;28;20049;-88
2024/01/11 11:58:22;;;;;;;23.00;12.60;;;;;;;;;;5050457;28;20413;-85
2024/01/11 12:00:49;;;;;;;17.45;11.35;;;;;;;;;;5050246;28;20127;-88
2024/01/11 12:03:16;;;;;;;17.80;11.75;;;;;;;;;;5050359;28;20021;-89
2024/01/11 12:05:43;;;;;;;24.35;12.40;;;;;;;;;;5050191;28;20507;-89
2024/01/11 12:08:09;;;;;;;20.10;11.77;;;;;;;;;;5050347;28;20025;-89
2024/01/11 12:10:35;;;;;;;18.60;11.48;;;;;;;;;;5050071;28;20035;-88
2024/01/11 12:13:01;;;;;;;18.02;11.65;;;;;;;;;;5050701;28;20096;-88
2024/01/11 12:15:28;;;;;;;19.17;11.90;;;;;;;;;;5032269;28;20051;-85
2024/01/11 12:17:59;;;;;;;18.40;11.10;;;;;;;;;;5049974;28;20029;-90
2024/01/11 12:20:25;;;;;;;19.92;12.10;;;;;;;;;;5049948;28;20033;-89
2024/01/11 12:22:51;;;;;;;20.33;12.32;;;;;;;;;;5049700;28;20083;-91
2024/01/11 12:25:17;;;;;;;20.67;11.93;;;;;;;;;;5049875;28;20108;-90
2024/01/11 12:27:43;;;;;;;19.13;12.38;;;;;;;;;;5049725;28;20489;-84
2024/01/11 12:30:14;;;;;;;21.35;12.00;;;;;;;;;;5049820;28;20021;-87
2024/01/11 12:32:40;;;;;;;22.73;12.35;;;;;;;;;;5049796;28;20032;-87
2024/01/11 12:35:06;;;;;;;20.83;12.25;;;;;;;;;;5049750;28;20025;-86
2024/01/11 12:37:32;;;;;;;22.80;11.68;;;;;;;;;;5050062;28;20021;-89
2024/01/11 12:39:59;;;;;;;22.63;12.23;;;;;;;;;;5031851;28;20025;-91
2024/01/11 12:42:25;;;;;;;22.33;13.57;;;;;;;;;;5049516;28;20270;-85
2024/01/11 12:44:51;;;;;;;21.92;10.70;;;;;;;;;;5049425;28;20114;-89
2024/01/11 12:47:18;;;;;;;18.55;10.90;;;;;;;;;;5031657;28;20017;-89
2024/01/11 12:49:46;;;;;;;20.45;12.43;;;;;;;;;;5049590;28;20070;-87
2024/01/11 12:52:16;;;;;;;20.25;11.98;;;;;;;;;;5031597;28;20459;-90
2024/01/11 12:54:45;;;;;;;20.38;11.48;;;;;;;;;;5049760;28;20528;-87
2024/01/11 12:57:21;;;;;;;18.65;10.75;;;;;;;;;;5049292;28;20083;-82
2024/01/11 12:59:48;;;;;;;18.13;11.60;;;;;;;;;;5049033;28;20477;-88
2024/01/11 13:02:14;;;;;;;19.30;11.32;;;;;;;;;;5049307;28;20043;-89
2024/01/11 13:04:46;;;;;;;18.73;11.35;;;;;;;;;;5049226;28;20025;-88
2024/01/11 13:07:15;;;;;;;17.55;10.95;;;;;;;;;;5031392;28;20071;-90
2024/01/11 13:09:41;;;;;;;18.40;11.38;;;;;;;;;;5031304;28;20477;-90
2024/01/11 13:12:07;;;;;;;20.58;11.68;;;;;;;;;;5049146;28;20392;-88
2024/01/11 13:14:33;;;;;;;18.77;11.73;;;;;;;;;;5049921;28;20043;-85
2024/01/11 13:16:59;;;;;;;17.50;11.68;;;;;;;;;;5048962;28;20055;-90
2024/01/11 13:19:25;;;;;;;17.55;11.00;;;;;;;;;;5031134;28;20508;-89
2024/01/11 13:21:52;;;;;;;18.92;10.25;;;;;;;;;;5048861;28;20033;-85
2024/01/11 13:24:18;;;;;;;18.75;11.45;;;;;;;;;;5049053;28;20017;-89
2024/01/11 13:26:44;;;;;;;16.52;10.50;;;;;;;;;;5048997;28;20049;-87
2024/01/11 13:29:11;;;;;;;18.67;10.95;;;;;;;;;;5049029;28;20025;-87
2024/01/11 13:31:37;;;;;;;16.52;10.70;;;;;;;;;;5049617;28;20021;-83
2024/01/11 13:34:03;;;;;;;16.25;10.55;;;;;;;;;;5031979;28;20044;-88
2024/01/11 13:36:29;;;;;;;18.50;10.75;;;;;;;;;;5048817;28;20389;-90
2024/01/11 13:38:55;;;;;;;19.77;10.82;;;;;;;;;;5048840;28;20033;-88
2024/01/11 13:41:22;;;;;;;21.10;11.05;;;;;;;;;;5030928;28;20047;-87
2024/01/11 13:43:48;;;;;;;16.75;10.68;;;;;;;;;;5048709;28;20017;-88
2024/01/11 13:46:16;;;;;;;19.17;11.13;;;;;;;;;;5048969;28;20120;-86
2024/01/11 13:48:42;;;;;;;16.08;10.77;;;;;;;;;;5031383;28;20358;-89
2024/01/11 13:51:12;;;;;;;15.80;9.77;;;;;;;;;;5052845;28;20510;-84
2024/01/11 13:53:38;;;;;;;13.73;9.55;;;;;;;;;;5053058;28;20021;-84
2024/01/11 13:56:05;;;;;;;19.65;9.77;;;;;;;;;;5053599;28;20025;-89
2024/01/11 13:58:31;;;;;;;13.50;8.75;;;;;;;;;;5052720;28;20060;-89
2024/01/11 14:00:57;;;;;;;13.80;8.80;;;;;;;;;;5052362;28;20047;-88
2024/01/11 14:03:24;;;;;;;15.75;9.20;;;;;;;;;;5052419;28;20017;-88